Terminal Aerodrome Forecast
Issued by NWS Cleveland, OH

Home | Current Version | Previous Version | Text Only | Print | Product List | Glossary Off
Versions: 1 2 3 4 5 6 7 8 9 10 11 12 13 14

517
FTUS41 KCLE 031730
TAFMFD
TAF
KMFD 031730Z 0318/0418 22016G26KT P6SM SCT035
     FM032200 24014G22KT P6SM BKN035
     FM040500 25012KT P6SM OVC022=

USA.gov is the U.S. government's official web portal to all federal, state and local government web resources and services.